createdAt,value
2023-05-11T00:00:34.059Z,100939.22
2023-05-11T00:04:01.595Z,100938.88
2023-05-11T00:07:28.194Z,100941.20
2023-05-11T00:10:55.836Z,100939.34
2023-05-11T00:14:23.653Z,100932.60
2023-05-11T00:17:52.896Z,100935.80
2023-05-11T00:21:20.863Z,100938.08
2023-05-11T00:24:47.478Z,100934.97
2023-05-11T00:28:15.181Z,100932.61
2023-05-11T00:31:42.589Z,100934.38
2023-05-11T00:35:11.813Z,100932.63
2023-05-11T00:38:41.378Z,100935.78
2023-05-11T00:42:08.723Z,100933.37
2023-05-11T00:45:37.734Z,100936.47
2023-05-11T00:49:05.661Z,100935.29
2023-05-11T00:52:33.447Z,100933.34
2023-05-11T00:56:00.780Z,100932.23
2023-05-11T00:59:28.424Z,100930.31
2023-05-11T01:02:56.133Z,100935.33
2023-05-11T01:06:33.630Z,100934.08
2023-05-11T01:10:05.709Z,100929.90
2023-05-11T01:13:36.435Z,100931.63
2023-05-11T01:17:09.156Z,100934.58
2023-05-11T01:20:37.540Z,100937.61
2023-05-11T01:24:31.031Z,100940.42
2023-05-11T01:28:18.799Z,100939.95
2023-05-11T01:31:49.007Z,100941.02
2023-05-11T01:35:23.638Z,100941.55
2023-05-11T01:38:56.293Z,100943.34
2023-05-11T01:42:28.050Z,100943.31
2023-05-11T01:45:57.705Z,100944.69
2023-05-11T01:49:25.264Z,100945.45
2023-05-11T01:52:53.331Z,100944.48
2023-05-11T01:56:23.249Z,100943.23
2023-05-11T01:59:52.592Z,100946.86
2023-05-11T02:03:21.829Z,100947.40
2023-05-11T02:06:50.937Z,100945.77
2023-05-11T02:10:20.433Z,100947.39
2023-05-11T02:13:51.116Z,100947.10
2023-05-11T02:17:22.433Z,100948.92
2023-05-11T02:20:52.075Z,100947.88
2023-05-11T02:24:20.846Z,100950.65
2023-05-11T02:27:49.208Z,100953.19
2023-05-11T02:31:21.355Z,100956.55
2023-05-11T02:34:56.128Z,100957.89
2023-05-11T02:38:27.269Z,100957.64
2023-05-11T02:42:00.711Z,100963.35
2023-05-11T02:45:28.237Z,100969.52
2023-05-11T02:49:01.317Z,100968.32
2023-05-11T02:52:31.875Z,100968.20
2023-05-11T02:55:59.906Z,100965.31
2023-05-11T02:59:27.513Z,100965.27
2023-05-11T03:02:54.430Z,100964.07
2023-05-11T03:06:22.193Z,100966.94
2023-05-11T03:09:49.794Z,100969.15
2023-05-11T03:13:17.597Z,100971.52
2023-05-11T03:16:45.867Z,100973.35
2023-05-11T03:20:15.395Z,100974.77
2023-05-11T03:23:44.608Z,100979.90
2023-05-11T03:27:13.239Z,100984.36
2023-05-11T03:30:42.192Z,100984.86
2023-05-11T03:34:11.941Z,100986.59
2023-05-11T03:37:41.376Z,100988.11
2023-05-11T03:41:13.059Z,100991.89
2023-05-11T03:44:41.980Z,100990.98
2023-05-11T03:48:10.215Z,100987.69
2023-05-11T03:51:38.559Z,100988.59
2023-05-11T03:55:05.960Z,100989.08
2023-05-11T03:58:33.519Z,100995.28
2023-05-11T04:02:01.759Z,100994.68
2023-05-11T04:05:29.629Z,100996.14
2023-05-11T04:08:56.502Z,100998.14
2023-05-11T04:12:23.143Z,101000.46
2023-05-11T04:15:51.737Z,100998.41
2023-05-11T04:19:21.144Z,101000.56
2023-05-11T04:22:48.173Z,101001.10
2023-05-11T04:26:15.854Z,100998.87
2023-05-11T04:29:43.878Z,101001.07
2023-05-11T04:33:17.979Z,100998.80
2023-05-11T04:36:48.205Z,100996.17
2023-05-11T04:40:16.326Z,101005.99
2023-05-11T04:43:44.524Z,101004.95
2023-05-11T04:47:11.884Z,101005.96
2023-05-11T04:50:39.851Z,101011.60
2023-05-11T04:54:10.564Z,101010.90
2023-05-11T04:57:40.511Z,101016.37
2023-05-11T05:01:10.964Z,101016.61
2023-05-11T05:04:38.337Z,101017.86
2023-05-11T05:08:07.585Z,101018.48
2023-05-11T05:11:34.750Z,101024.06
2023-05-11T05:15:01.468Z,101029.88
2023-05-11T05:18:28.612Z,101028.55
2023-05-11T05:21:55.979Z,101027.77
2023-05-11T05:25:23.771Z,101031.16
2023-05-11T05:28:50.836Z,101033.09
2023-05-11T05:32:20.591Z,101033.63
2023-05-11T05:35:48.482Z,101034.16
2023-05-11T05:39:17.177Z,101035.85
2023-05-11T05:42:43.749Z,101040.80
2023-05-11T05:46:15.007Z,101041.24
2023-05-11T05:49:43.357Z,101043.16
2023-05-11T05:53:10.148Z,101042.94
2023-05-11T05:56:37.795Z,101043.17
2023-05-11T06:00:09.823Z,101045.45
2023-05-11T06:03:40.463Z,101046.67
2023-05-11T06:07:07.962Z,101049.23
2023-05-11T06:10:35.394Z,101053.38
2023-05-11T06:14:02.327Z,101052.96
2023-05-11T06:17:31.089Z,101052.92
2023-05-11T06:20:58.348Z,101055.35
2023-05-11T06:24:32.467Z,101056.88
2023-05-11T06:27:59.384Z,101060.10
2023-05-11T06:31:27.272Z,101065.55
2023-05-11T06:34:54.806Z,101065.48
2023-05-11T06:38:23.188Z,101069.40
2023-05-11T06:41:53.909Z,101065.12
2023-05-11T06:45:22.970Z,101063.08
2023-05-11T06:48:50.622Z,101066.58
2023-05-11T06:52:18.798Z,101067.50
2023-05-11T06:55:47.596Z,101066.45
2023-05-11T06:59:15.495Z,101063.36
2023-05-11T07:02:43.249Z,101066.14
2023-05-11T07:06:11.773Z,101064.45
2023-05-11T07:09:40.036Z,101068.58
2023-05-11T07:13:10.234Z,101069.92
2023-05-11T07:16:39.534Z,101068.13
2023-05-11T07:20:06.988Z,101068.80
2023-05-11T07:23:34.738Z,101069.33
2023-05-11T07:27:02.275Z,101065.89
2023-05-11T07:30:29.763Z,101061.95
2023-05-11T07:33:57.486Z,101069.30
2023-05-11T07:37:24.767Z,101069.09
2023-05-11T07:40:52.103Z,101069.86
2023-05-11T07:44:19.726Z,101066.61
2023-05-11T07:47:46.516Z,101070.47
2023-05-11T07:51:13.722Z,101066.14
2023-05-11T07:54:41.357Z,101064.86
2023-05-11T07:58:08.560Z,101059.98
2023-05-11T08:01:35.772Z,101062.55
2023-05-11T08:05:02.575Z,101061.70
2023-05-11T08:08:32.543Z,101062.13
2023-05-11T08:12:01.851Z,101055.42
2023-05-11T08:15:28.998Z,101063.88
2023-05-11T08:18:55.580Z,101057.28
2023-05-11T08:22:22.552Z,101058.14
2023-05-11T08:25:57.723Z,101059.08
2023-05-11T08:29:27.640Z,101052.77
2023-05-11T08:32:59.036Z,101059.30
2023-05-11T08:36:27.211Z,101063.48
2023-05-11T08:39:54.531Z,101064.19
2023-05-11T08:43:24.113Z,101061.02
2023-05-11T08:47:08.554Z,101061.96
2023-05-11T08:50:41.813Z,101060.39
2023-05-11T08:54:09.001Z,101061.09
2023-05-11T08:57:38.082Z,101061.44
2023-05-11T09:01:06.061Z,101067.26
2023-05-11T09:04:34.028Z,101057.27
2023-05-11T09:08:05.525Z,101057.55
2023-05-11T09:11:32.169Z,101061.20
2023-05-11T09:15:02.518Z,101054.47
2023-05-11T09:18:30.098Z,101061.30
2023-05-11T09:21:57.358Z,101058.62
2023-05-11T09:25:25.793Z,101052.02
2023-05-11T09:29:02.935Z,101054.33
2023-05-11T09:32:47.770Z,101055.48
2023-05-11T09:36:26.355Z,101049.88
2023-05-11T09:43:26.117Z,101053.73
2023-05-11T09:46:53.020Z,101052.27
2023-05-11T09:50:26.334Z,101044.74
2023-05-11T09:53:54.555Z,101050.05
2023-05-11T09:57:30.000Z,101050.34
2023-05-11T10:00:58.668Z,101045.82
2023-05-11T10:04:32.715Z,101042.77
2023-05-11T10:08:09.125Z,101048.45
2023-05-11T10:11:36.520Z,101042.66
2023-05-11T10:15:06.019Z,101035.86
2023-05-11T10:18:33.360Z,101034.08
2023-05-11T10:22:00.980Z,101037.14
2023-05-11T10:25:29.413Z,101037.55
2023-05-11T10:28:57.223Z,101032.34
2023-05-11T10:32:24.141Z,101032.09
2023-05-11T10:35:54.065Z,101022.60
2023-05-11T10:39:23.044Z,101029.90
2023-05-11T10:43:17.788Z,101018.61
2023-05-11T10:47:02.425Z,101013.61
2023-05-11T10:50:49.284Z,101020.67
2023-05-11T10:54:40.940Z,101016.10
2023-05-11T10:58:12.170Z,101006.55
2023-05-11T11:01:42.149Z,101010.14
2023-05-11T11:05:17.796Z,101009.56
2023-05-11T11:09:03.170Z,101007.30
2023-05-11T11:12:31.346Z,101001.04
2023-05-11T11:16:16.719Z,100997.57
2023-05-11T11:19:45.101Z,100992.80
2023-05-11T11:23:46.040Z,101000.08
2023-05-11T11:27:14.971Z,100998.91
2023-05-11T11:30:45.351Z,101005.09
2023-05-11T11:34:39.956Z,100995.44
2023-05-11T11:38:07.931Z,101001.67
2023-05-11T11:41:35.793Z,101005.87
2023-05-11T11:45:45.519Z,101009.92
2023-05-11T11:49:14.689Z,101007.64
2023-05-11T11:52:46.941Z,101006.98
2023-05-11T11:56:41.128Z,101003.98
2023-05-11T12:00:13.269Z,101006.38
2023-05-11T12:03:48.304Z,101005.34
2023-05-11T12:07:17.315Z,101007.49
2023-05-11T12:10:46.745Z,101004.90
2023-05-11T12:14:17.421Z,101008.86
2023-05-11T12:17:45.423Z,101005.63
2023-05-11T12:21:23.022Z,101002.34
2023-05-11T12:24:50.266Z,100996.30
2023-05-11T12:28:23.381Z,100999.34
2023-05-11T12:31:50.467Z,100996.08
2023-05-11T12:35:23.674Z,100990.45
2023-05-11T12:38:53.670Z,100989.85
2023-05-11T12:42:23.573Z,100985.29
2023-05-11T12:45:52.008Z,100985.58
2023-05-11T12:49:26.664Z,100981.85
2023-05-11T12:52:55.557Z,100983.13
2023-05-11T12:56:22.961Z,100972.56
2023-05-11T12:59:50.213Z,100972.84
2023-05-11T13:03:22.506Z,100979.02
2023-05-11T13:06:49.515Z,100972.11
2023-05-11T13:10:16.869Z,100971.29
2023-05-11T13:13:44.108Z,100969.95
2023-05-11T13:17:11.390Z,100965.65
2023-05-11T13:20:39.161Z,100963.08
2023-05-11T13:24:09.270Z,100959.21
2023-05-11T13:27:37.154Z,100958.41
2023-05-11T13:31:05.087Z,100959.53
2023-05-11T13:34:32.649Z,100954.41
2023-05-11T13:37:59.449Z,100950.14
2023-05-11T13:41:29.097Z,100945.35
2023-05-11T13:44:59.039Z,100941.41
2023-05-11T13:48:27.931Z,100937.38
2023-05-11T13:51:55.979Z,100942.80
2023-05-11T13:55:24.635Z,100939.16
2023-05-11T13:58:52.063Z,100939.86
2023-05-11T14:02:19.123Z,100940.65
2023-05-11T14:05:46.310Z,100941.38
2023-05-11T14:09:16.121Z,100944.11
2023-05-11T14:12:44.456Z,100942.13
2023-05-11T14:16:14.028Z,100938.98
2023-05-11T14:19:41.457Z,100938.71
2023-05-11T14:23:08.750Z,100936.72
2023-05-11T14:26:43.186Z,100933.25
2023-05-11T14:30:20.136Z,100926.80
2023-05-11T14:33:49.554Z,100920.02
2023-05-11T14:37:16.440Z,100920.59
2023-05-11T14:40:44.747Z,100921.34
2023-05-11T14:44:13.965Z,100924.11
2023-05-11T14:47:42.650Z,100921.93
2023-05-11T14:51:10.378Z,100920.84
2023-05-11T14:54:39.802Z,100923.42
2023-05-11T14:58:09.609Z,100924.17
2023-05-11T15:01:39.560Z,100920.70
2023-05-11T15:05:13.718Z,100925.79
2023-05-11T15:08:43.518Z,100927.56
2023-05-11T15:12:15.162Z,100924.32
2023-05-11T15:15:47.672Z,100928.66
2023-05-11T15:19:15.617Z,100929.73
2023-05-11T15:22:51.118Z,100925.86
2023-05-11T15:26:19.507Z,100919.89
2023-05-11T15:29:47.076Z,100923.98
2023-05-11T15:33:16.402Z,100920.00
2023-05-11T15:36:46.244Z,100925.45
2023-05-11T15:40:18.468Z,100919.19
2023-05-11T15:43:45.591Z,100921.62
2023-05-11T15:47:12.712Z,100929.98
2023-05-11T15:50:42.077Z,100933.25
2023-05-11T15:54:11.398Z,100932.80
2023-05-11T15:57:40.026Z,100933.39
2023-05-11T16:01:06.773Z,100939.20
2023-05-11T16:04:35.805Z,100940.36
2023-05-11T16:08:02.515Z,100941.61
2023-05-11T16:11:31.733Z,100942.70
2023-05-11T16:14:58.801Z,100944.04
2023-05-11T16:18:26.777Z,100939.28
2023-05-11T16:21:53.983Z,100940.23
2023-05-11T16:25:21.706Z,100939.35
2023-05-11T16:28:49.367Z,100942.58
2023-05-11T16:32:17.830Z,100948.89
2023-05-11T16:35:45.014Z,100942.45
2023-05-11T16:39:12.282Z,100943.56
2023-05-11T16:42:41.316Z,100944.31
2023-05-11T16:46:08.151Z,100947.34
2023-05-11T16:49:35.125Z,100944.88
2023-05-11T16:53:03.767Z,100945.83
2023-05-11T16:56:31.815Z,100942.70
2023-05-11T16:59:59.381Z,100941.81
2023-05-11T17:03:27.245Z,100941.52
2023-05-11T17:06:58.017Z,100941.70
2023-05-11T17:10:25.034Z,100946.68
2023-05-11T17:13:54.798Z,100946.34
2023-05-11T17:17:22.375Z,100946.34
2023-05-11T17:20:56.320Z,100948.05
2023-05-11T17:24:23.495Z,100946.14
2023-05-11T17:27:50.241Z,100953.98
2023-05-11T17:31:18.262Z,100952.63
2023-05-11T17:34:46.917Z,100953.25
2023-05-11T17:38:17.375Z,100961.36
2023-05-11T17:41:45.406Z,100962.12
2023-05-11T17:45:14.650Z,100961.65
2023-05-11T17:48:41.590Z,100962.87
2023-05-11T17:52:11.617Z,100969.45
2023-05-11T17:55:41.845Z,100967.15
2023-05-11T17:59:09.855Z,100971.72
2023-05-11T18:02:37.596Z,100972.45
2023-05-11T18:06:08.492Z,100975.73
2023-05-11T18:09:41.519Z,100978.05
2023-05-11T18:13:09.617Z,100986.10
2023-05-11T18:16:38.133Z,100985.67
2023-05-11T18:20:08.367Z,100988.39
2023-05-11T18:23:36.279Z,100993.87
2023-05-11T18:27:08.761Z,100996.58
2023-05-11T18:30:37.229Z,100993.99
2023-05-11T18:34:06.797Z,101002.20
2023-05-11T18:37:40.636Z,101004.14
2023-05-11T18:41:09.686Z,101005.27
2023-05-11T18:44:37.309Z,101006.97
2023-05-11T18:48:05.173Z,101011.11
2023-05-11T18:51:35.180Z,101019.27
2023-05-11T18:55:02.769Z,101020.81
2023-05-11T18:58:29.776Z,101021.48
2023-05-11T19:01:56.963Z,101026.23
2023-05-11T19:05:26.485Z,101027.90
2023-05-11T19:08:55.829Z,101034.36
2023-05-11T19:12:23.735Z,101035.84
2023-05-11T19:15:51.198Z,101034.67
2023-05-11T19:19:19.544Z,101038.02
2023-05-11T19:22:47.265Z,101041.67
2023-05-11T19:26:19.779Z,101044.36
2023-05-11T19:29:50.957Z,101047.59
2023-05-11T19:33:20.351Z,101050.90
2023-05-11T19:36:51.770Z,101056.08
2023-05-11T19:43:52.776Z,101062.23
2023-05-11T19:47:23.082Z,101064.83
2023-05-11T19:50:50.142Z,101065.11
2023-05-11T19:54:19.671Z,101064.82
2023-05-11T19:57:47.126Z,101070.67
2023-05-11T20:01:21.276Z,101074.44
2023-05-11T20:04:48.519Z,101076.67
2023-05-11T20:08:20.050Z,101078.71
2023-05-11T20:11:54.637Z,101081.39
2023-05-11T20:15:22.645Z,101082.67
2023-05-11T20:18:50.552Z,101083.98
2023-05-11T20:22:18.147Z,101085.13
2023-05-11T20:25:48.539Z,101083.48
2023-05-11T20:29:17.167Z,101091.70
2023-05-11T20:36:16.194Z,101094.67
2023-05-11T20:39:43.248Z,101102.83
2023-05-11T20:43:14.752Z,101103.89
2023-05-11T20:46:43.535Z,101104.12
2023-05-11T20:50:12.416Z,101107.77
2023-05-11T20:53:40.281Z,101108.46
2023-05-11T20:57:08.527Z,101108.51
2023-05-11T21:00:35.526Z,101108.95
2023-05-11T21:04:03.750Z,101109.01
2023-05-11T21:07:31.408Z,101110.17
2023-05-11T21:10:59.543Z,101109.41
2023-05-11T21:14:26.606Z,101115.95
2023-05-11T21:17:53.700Z,101117.75
2023-05-11T21:21:21.860Z,101119.05
2023-05-11T21:24:51.003Z,101124.69
2023-05-11T21:28:22.962Z,101122.08
2023-05-11T21:31:49.904Z,101126.52
2023-05-11T21:35:17.073Z,101127.63
2023-05-11T21:38:44.271Z,101129.34
2023-05-11T21:42:13.411Z,101132.91
2023-05-11T21:45:45.484Z,101130.64
2023-05-11T21:49:18.225Z,101131.70
2023-05-11T21:52:46.994Z,101133.08
2023-05-11T21:56:15.187Z,101136.16
2023-05-11T21:59:42.449Z,101138.70
2023-05-11T22:03:11.272Z,101139.85
2023-05-11T22:06:41.384Z,101143.39
2023-05-11T22:10:11.540Z,101139.40
2023-05-11T22:13:40.206Z,101145.10
2023-05-11T22:17:11.123Z,101142.23
2023-05-11T22:20:39.288Z,101145.75
2023-05-11T22:24:11.232Z,101146.98
2023-05-11T22:27:40.756Z,101151.06
2023-05-11T22:31:11.106Z,101148.39
2023-05-11T22:34:40.390Z,101149.64
2023-05-11T22:38:07.722Z,101149.79
2023-05-11T22:41:36.177Z,101152.55
2023-05-11T22:45:03.486Z,101155.41
2023-05-11T22:48:30.909Z,101158.30
2023-05-11T22:52:01.938Z,101156.49
2023-05-11T22:55:42.989Z,101154.35
2023-05-11T22:59:10.173Z,101154.79
2023-05-11T23:02:39.653Z,101158.17
2023-05-11T23:06:08.406Z,101157.76
2023-05-11T23:09:37.188Z,101155.71
2023-05-11T23:13:05.337Z,101156.33
2023-05-11T23:16:35.575Z,101159.05
2023-05-11T23:20:05.407Z,101157.64
2023-05-11T23:23:35.843Z,101160.21
2023-05-11T23:27:06.573Z,101164.70
2023-05-11T23:30:37.379Z,101161.69
2023-05-11T23:34:04.151Z,101158.12
2023-05-11T23:37:30.883Z,101154.74
2023-05-11T23:40:58.453Z,101154.30
2023-05-11T23:44:26.233Z,101153.30
2023-05-11T23:47:53.936Z,101156.48
2023-05-11T23:51:22.850Z,101159.94
2023-05-11T23:54:53.045Z,101159.21
2023-05-11T23:58:21.105Z,101153.56
